Aeroporto :
LOGIN :

Iscrizione | Disclaimer

   EN    FR    IT 

 










Sommario :    VFR   VFR Marginale   IFR   IFR Intensivo   IFR Molto Intensivo
Visibilità : 
Base nubi : 
>= 8 km
>= 3000ft
5 / 8 km
1000 / 3000 ft
1500m / 5 km
500 / 1000 ft
800 / 1500m
200 / 500 ft
< 800m
< 200 ft
Simboli :   Temporali  Nebbia  Neve Forte  Precipitazioni Forti  Vento > 20 kt
SIGMETs :   Varie  Temporali  Ghiacco  Turbolenza  Onda orograficha  Ceneri Vulcaniche






- Altitudine del aeroporto : 101 ft
- Codice IATA : HAD


ESMT - Halmstad

ULTIMO METAR :
  • 241420Z 25014KT 8000 OVC005 10/09 Q1015 REDZ

METARs OBSOLETI :
  • 241350Z 25015KT 3100 DZ SCT005 BKN007 OVC008 10/09 Q1015 REDZ
  • 241320Z 24016KT 8000 FEW004 BKN006 OVC008 10/09 Q1014
  • 241250Z 25017KT 3600 DZ OVC005 09/09 Q1015 REDZ
  • 241220Z 24019KT 4100 DZ OVC005 09/08 Q1015
  • 241150Z 24019KT 7000 OVC006 09/08 Q1015 REDZ

TAF TAF ESMT
Valido dal 24 a 12 ore il 24 a 20 ore UTC


241100Z 2412/2420 23018KT 6000 -RADZ SCT005 OVC012
TEMPO 2412/2420 2500 RADZ BKN004



MetMap, La meteo Aeronautica in un colpo d'occhio ! - Copyright ORBIFLY Dicembre 2007 - Disclaimer

ORBIFLY MET'MAP TEAM :

Programmazione e sviluppo : Alexandra Zaïnal
Concezione : Baudouin d'Aumeries
Aiuto per la programmazione : Marc-Olivier Méhu
Supporto tecnico e logistico : Manuel Goepfert
Aiuto per la traduzione : Arnaldo La Scala

Contatto : metmap@orbifly.com




FONTI E CREDITI :

   NOAA